Time;durP1;ratioP1;P1;durP2;ratioP2;P2;SDS_P1;SDS_P2;PMS_P1;PMS_P2;Temp;Humidity;BMP_temperature;BMP_pressure;BME280_temperature;BME280_humidity;BME280_pressure;Samples;Min_cycle;Max_cycle;Signal;HPM_P1;HPM_P2
2021/05/16 00:00:10;;;;;;;;;;;;;;;13.99;100.00;99672.26;1781377;81;20236;-79
2021/05/16 00:02:37;;;;;;;;;;;;;;;13.96;100.00;99678.09;1781396;81;20155;-78
2021/05/16 00:05:04;;;;;;;;;;;;;;;13.90;100.00;99676.16;1781240;81;20166;-78
2021/05/16 00:07:30;;;;;;;;;;;;;;;13.85;100.00;99680.33;1781408;81;20171;-78
2021/05/16 00:09:57;;;;;;;;;;;;;;;13.80;100.00;99683.34;1781289;81;20160;-78
2021/05/16 00:12:23;;;;;;;;;;;;;;;13.74;100.00;99684.12;1781623;81;20183;-78
2021/05/16 00:14:51;;;;;;;;;;;;;;;13.71;100.00;99676.40;1782747;80;20215;-78
2021/05/16 00:17:18;;;;;;;;;;;;;;;13.67;100.00;99682.23;1779475;80;20147;-79
2021/05/16 00:19:46;;;;;;;;;;;;;;;13.63;100.00;99670.59;1760628;81;20152;-79
2021/05/16 00:22:13;;;;;;;;;;;;;;;13.62;100.00;99683.87;1764358;81;20182;-80
2021/05/16 00:24:40;;;;;;;;;;;;;;;13.58;100.00;99679.36;1764049;81;20161;-77
2021/05/16 00:27:06;;;;;;;;;;;;;;;13.54;100.00;99686.73;1764266;81;20161;-79
2021/05/16 00:29:34;;;;;;;;;;;;;;;13.48;100.00;99690.56;1764171;81;20193;-78
2021/05/16 00:32:00;;;;;;;;;;;;;;;13.44;100.00;99688.46;1763853;81;20150;-77
2021/05/16 00:34:27;;;;;;;;;;;;;;;13.40;100.00;99693.45;1764074;81;20177;-77
2021/05/16 00:36:53;;;;;;;;;;;;;;;13.38;100.00;99691.42;1764234;81;20513;-77
2021/05/16 00:39:20;;;;;;;;;;;;;;;13.41;100.00;99695.11;1764297;81;20145;-78
2021/05/16 00:41:47;;;;;;;;;;;;;;;13.39;100.00;99689.05;1764359;81;20153;-78
2021/05/16 00:44:17;;;;;;;;;;;;;;;13.38;100.00;99691.95;1764174;81;20160;-79
2021/05/16 00:46:43;;;;;;;;;;;;;;;13.35;100.00;99687.77;1764146;81;20165;-78
2021/05/16 00:49:11;;;;;;;;;;;;;;;13.33;100.00;99685.74;1764195;81;20153;-78
2021/05/16 00:51:38;;;;;;;;;;;;;;;13.30;100.00;99688.31;1764272;81;20169;-78
2021/05/16 00:54:08;;;;;;;;;;;;;;;13.30;100.00;99682.05;1764378;81;20474;-77
2021/05/16 00:56:35;;;;;;;;;;;;;;;13.29;100.00;99678.48;1764235;81;20177;-78
2021/05/16 00:59:04;;;;;;;;;;;;;;;13.31;100.00;99685.11;1730899;81;20185;-78
2021/05/16 01:01:31;;;;;;;;;;;;;;;13.30;100.00;99684.24;1764236;81;20145;-78
2021/05/16 01:03:59;;;;;;;;;;;;;;;13.28;100.00;99685.49;1764448;81;20165;-79
2021/05/16 01:06:26;;;;;;;;;;;;;;;13.26;100.00;99682.97;1764231;81;20157;-77
2021/05/16 01:08:57;;;;;;;;;;;;;;;13.24;100.00;99684.19;1764318;81;20216;-78
2021/05/16 01:11:22;;;;;;;;;;;;;;;13.20;100.00;99685.62;1762958;81;20161;-80
2021/05/16 01:13:50;;;;;;;;;;;;;;;13.16;100.00;99676.20;1764164;81;20169;-78
2021/05/16 01:16:18;;;;;;;;;;;;;;;13.14;100.00;99684.55;1756927;81;20169;-78
2021/05/16 01:18:46;;;;;;;;;;;;;;;13.11;100.00;99680.33;1769109;81;20170;-80
2021/05/16 01:21:17;;;;;;;;;;;;;;;13.09;100.00;99687.00;1739722;82;20182;-77
2021/05/16 01:26:15;;;;;;;;;;;;;;;13.06;100.00;99691.46;1683434;84;20186;-78
2021/05/16 01:28:44;;;;;;;;;;;;;;;13.05;100.00;99692.48;1683316;85;20225;-78
2021/05/16 01:31:12;;;;;;;;;;;;;;;13.03;100.00;99694.55;1683543;85;20143;-76
2021/05/16 01:33:38;;;;;;;;;;;;;;;13.01;100.00;99690.68;1683399;85;20512;-78
2021/05/16 01:36:06;;;;;;;;;;;;;;;13.00;100.00;99690.38;1683520;85;20152;-78
2021/05/16 01:38:33;;;;;;;;;;;;;;;13.00;100.00;99689.55;1683402;85;20204;-78
2021/05/16 01:40:59;;;;;;;;;;;;;;;12.98;100.00;99689.73;1683504;85;20191;-78
2021/05/16 01:43:37;;;;;;;;;;;;;;;12.98;100.00;99688.87;1683503;85;20147;-78
2021/05/16 01:46:04;;;;;;;;;;;;;;;12.97;100.00;99694.00;1683712;85;20507;-78
2021/05/16 01:48:30;;;;;;;;;;;;;;;12.96;100.00;99693.16;1683707;85;20175;-78
2021/05/16 01:50:58;;;;;;;;;;;;;;;12.96;100.00;99689.59;1683985;85;20163;-78
2021/05/16 01:53:27;;;;;;;;;;;;;;;12.96;100.00;99695.87;1684263;85;20152;-78
2021/05/16 01:55:55;;;;;;;;;;;;;;;12.99;100.00;99699.53;1684377;85;20219;-78
2021/05/16 01:58:21;;;;;;;;;;;;;;;13.04;100.00;99698.44;1661722;85;20226;-78
2021/05/16 02:00:48;;;;;;;;;;;;;;;13.07;100.00;99695.87;1684319;85;20139;-78
2021/05/16 02:03:20;;;;;;;;;;;;;;;13.11;100.00;99696.62;1684407;85;20170;-76
2021/05/16 02:05:49;;;;;;;;;;;;;;;13.16;100.00;99697.40;1684372;85;20199;-78
2021/05/16 02:08:18;;;;;;;;;;;;;;;13.19;100.00;99694.30;1684448;85;20155;-78
2021/05/16 02:10:45;;;;;;;;;;;;;;;13.23;100.00;99702.36;1684370;85;20139;-79
2021/05/16 02:13:13;;;;;;;;;;;;;;;13.29;100.00;99699.38;1684532;85;20191;-79
2021/05/16 02:15:41;;;;;;;;;;;;;;;13.34;100.00;99694.75;1685418;82;20108;-78
2021/05/16 02:18:08;;;;;;;;;;;;;;;13.39;100.00;99697.19;1706567;82;20141;-78
2021/05/16 02:20:36;;;;;;;;;;;;;;;13.43;100.00;99700.34;1683428;82;20208;-79
2021/05/16 02:23:02;;;;;;;;;;;;;;;13.45;100.00;99700.45;1709665;83;20182;-78
2021/05/16 02:25:30;;;;;;;;;;;;;;;13.47;100.00;99697.55;1736302;82;20182;-78
2021/05/16 02:27:58;;;;;;;;;;;;;;;13.50;100.00;99700.41;1736037;82;20179;-77
2021/05/16 02:30:25;;;;;;;;;;;;;;;13.53;100.00;99703.56;1736499;83;20142;-78
2021/05/16 02:32:51;;;;;;;;;;;;;;;13.56;100.00;99707.73;1736542;82;20542;-79
2021/05/16 02:35:18;;;;;;;;;;;;;;;13.59;100.00;99703.28;1736883;82;20162;-77
2021/05/16 02:37:46;;;;;;;;;;;;;;;13.62;100.00;99702.36;1666459;84;20189;-79
2021/05/16 02:40:14;;;;;;;;;;;;;;;13.66;100.00;99708.23;1643908;84;20180;-77
2021/05/16 02:42:41;;;;;;;;;;;;;;;13.70;100.00;99707.31;1666581;84;20197;-79
2021/05/16 02:45:11;;;;;;;;;;;;;;;13.73;100.00;99708.28;1666727;84;20209;-78
2021/05/16 02:47:37;;;;;;;;;;;;;;;13.76;100.00;99701.92;1666293;84;20196;-78
2021/05/16 02:50:05;;;;;;;;;;;;;;;13.80;100.00;99699.12;1644076;86;20540;-78
2021/05/16 02:52:34;;;;;;;;;;;;;;;13.88;100.00;99698.63;1663024;85;20189;-78
2021/05/16 02:55:01;;;;;;;;;;;;;;;13.94;100.00;99694.59;1665934;84;20180;-78
2021/05/16 02:57:30;;;;;;;;;;;;;;;14.00;100.00;99693.77;1666389;84;20227;-79
2021/05/16 02:59:57;;;;;;;;;;;;;;;14.05;100.00;99689.94;1665681;86;20192;-78
2021/05/16 03:02:25;;;;;;;;;;;;;;;14.10;100.00;99692.05;1665668;85;20192;-77
2021/05/16 03:04:52;;;;;;;;;;;;;;;14.15;100.00;99691.46;1665874;84;20196;-79
2021/05/16 03:07:20;;;;;;;;;;;;;;;14.20;100.00;99697.96;1665768;86;20196;-77
2021/05/16 03:09:46;;;;;;;;;;;;;;;14.24;100.00;99696.50;1665967;84;20513;-78
2021/05/16 03:12:13;;;;;;;;;;;;;;;14.31;100.00;99697.06;1665992;84;20192;-79
2021/05/16 03:14:40;;;;;;;;;;;;;;;14.36;100.00;99694.05;1665975;84;20224;-79
2021/05/16 03:17:07;;;;;;;;;;;;;;;14.43;100.00;99695.43;1667674;84;20547;-77
2021/05/16 03:19:33;;;;;;;;;;;;;;;14.51;100.00;99692.50;1679072;84;20206;-79
2021/05/16 03:22:01;;;;;;;;;;;;;;;14.59;100.00;99699.69;1687733;85;20537;-78
2021/05/16 03:24:30;;;;;;;;;;;;;;;14.68;100.00;99697.09;1687839;85;20182;-78
2021/05/16 03:26:57;;;;;;;;;;;;;;;14.78;100.00;99692.09;1687687;85;20753;-78
2021/05/16 03:29:25;;;;;;;;;;;;;;;14.90;100.00;99696.37;1687850;85;20178;-79
2021/05/16 03:31:52;;;;;;;;;;;;;;;15.01;100.00;99690.83;1687868;85;20178;-79
2021/05/16 03:34:19;;;;;;;;;;;;;;;15.10;100.00;99684.66;1703823;83;20150;-79
2021/05/16 03:36:45;;;;;;;;;;;;;;;15.19;100.00;99677.95;1727608;83;20158;-79
2021/05/16 03:39:12;;;;;;;;;;;;;;;15.31;100.00;99680.35;1727743;83;20197;-78
2021/05/16 03:41:38;;;;;;;;;;;;;;;15.44;100.00;99679.52;1731342;83;20301;-78
2021/05/16 03:44:06;;;;;;;;;;;;;;;15.59;100.00;99677.91;1727881;83;20146;-79
2021/05/16 03:46:33;;;;;;;;;;;;;;;15.74;100.00;99677.19;1727816;83;20158;-78
2021/05/16 03:49:01;;;;;;;;;;;;;;;15.91;100.00;99671.26;1727784;83;20158;-78
2021/05/16 03:51:28;;;;;;;;;;;;;;;16.03;100.00;99672.80;1727966;83;20162;-78
2021/05/16 03:53:54;;;;;;;;;;;;;;;16.13;100.00;99666.36;1728021;83;20150;-77
2021/05/16 03:56:21;;;;;;;;;;;;;;;16.19;100.00;99660.56;1727973;83;20182;-80
2021/05/16 03:58:47;;;;;;;;;;;;;;;16.26;100.00;99660.83;1727765;83;20158;-78
2021/05/16 04:01:15;;;;;;;;;;;;;;;16.32;100.00;99660.48;1731611;83;20170;-79
2021/05/16 04:03:42;;;;;;;;;;;;;;;16.41;100.00;99661.89;1727788;83;20170;-78
2021/05/16 04:06:09;;;;;;;;;;;;;;;16.51;100.00;99659.53;1728026;83;20175;-78
2021/05/16 04:08:37;;;;;;;;;;;;;;;16.62;100.00;99650.34;1727705;83;20596;-79
2021/05/16 04:11:03;;;;;;;;;;;;;;;16.72;100.00;99653.96;1728127;83;20177;-79
2021/05/16 04:13:31;;;;;;;;;;;;;;;16.82;100.00;99657.02;1728217;83;20183;-81
2021/05/16 04:15:59;;;;;;;;;;;;;;;16.94;100.00;99658.55;1738193;81;20179;-78
2021/05/16 04:18:26;;;;;;;;;;;;;;;17.10;100.00;99656.61;1785504;80;20183;-79
2021/05/16 04:20:53;;;;;;;;;;;;;;;17.32;100.00;99657.06;1761765;82;20161;-79
2021/05/16 04:23:19;;;;;;;;;;;;;;;17.55;100.00;99648.22;1761744;82;20150;-79
2021/05/16 04:25:47;;;;;;;;;;;;;;;17.76;100.00;99649.67;1761592;82;20161;-82
2021/05/16 04:28:14;;;;;;;;;;;;;;;18.00;100.00;99642.45;1762587;81;20192;-79
2021/05/16 04:30:41;;;;;;;;;;;;;;;18.24;100.00;99643.11;1761865;82;20157;-81
2021/05/16 04:33:07;;;;;;;;;;;;;;;18.46;100.00;99629.22;1761857;82;20153;-79
2021/05/16 04:35:34;;;;;;;;;;;;;;;18.69;100.00;99630.36;1761846;82;20161;-79
2021/05/16 04:38:00;;;;;;;;;;;;;;;18.91;100.00;99634.77;1761790;82;20168;-80
2021/05/16 04:40:30;;;;;;;;;;;;;;;19.08;100.00;99632.19;1762159;81;20145;-80
2021/05/16 04:42:57;;;;;;;;;;;;;;;19.26;100.00;99632.61;1762270;82;20185;-80
2021/05/16 04:45:24;;;;;;;;;;;;;;;19.40;100.00;99635.95;1762142;82;20232;-82
2021/05/16 04:47:50;;;;;;;;;;;;;;;19.57;100.00;99636.90;1761868;82;20182;-80
2021/05/16 04:50:18;;;;;;;;;;;;;;;19.72;100.00;99633.13;1761943;82;20189;-85
2021/05/16 04:52:46;;;;;;;;;;;;;;;19.86;100.00;99636.45;1762017;82;20161;-80
2021/05/16 04:55:13;;;;;;;;;;;;;;;19.98;100.00;99636.97;1761601;82;20152;-79
2021/05/16 04:57:40;;;;;;;;;;;;;;;20.06;100.00;99640.69;1761722;82;20173;-81
2021/05/16 05:00:08;;;;;;;;;;;;;;;20.13;100.00;99646.88;1761762;82;20161;-79
2021/05/16 05:02:36;;;;;;;;;;;;;;;20.23;100.00;99655.87;1761716;82;20144;-80
2021/05/16 05:05:03;;;;;;;;;;;;;;;20.33;100.00;99652.47;1762070;80;20213;-79
2021/05/16 05:07:30;;;;;;;;;;;;;;;20.44;100.00;99659.84;1761632;82;20185;-79
2021/05/16 05:09:57;;;;;;;;;;;;;;;20.57;100.00;99665.58;1761541;82;20170;-79
2021/05/16 05:12:24;;;;;;;;;;;;;;;20.71;100.00;99658.72;1761788;82;20170;-80
2021/05/16 05:14:51;;;;;;;;;;;;;;;20.82;100.00;99665.23;1761520;82;20178;-81
2021/05/16 05:17:18;;;;;;;;;;;;;;;20.94;100.00;99665.17;1770397;80;20162;-79
2021/05/16 05:19:44;;;;;;;;;;;;;;;20.99;100.00;99663.34;1793087;80;20165;-80
2021/05/16 05:22:11;;;;;;;;;;;;;;;21.08;100.00;99668.43;1792989;80;20159;-80
2021/05/16 05:24:37;;;;;;;;;;;;;;;21.17;100.00;99673.25;1792889;80;20147;-79
2021/05/16 05:27:04;;;;;;;;;;;;;;;21.29;100.00;99669.05;1792839;80;20155;-81
2021/05/16 05:29:31;;;;;;;;;;;;;;;21.35;100.00;99664.45;1792746;80;20163;-80
2021/05/16 05:31:58;;;;;;;;;;;;;;;21.49;100.00;99661.67;1792595;80;20135;-81
2021/05/16 05:34:25;;;;;;;;;;;;;;;21.70;100.00;99655.93;1792531;80;20171;-78
2021/05/16 05:36:53;;;;;;;;;;;;;;;21.92;100.00;99657.86;1792569;80;20500;-78
2021/05/16 05:39:20;;;;;;;;;;;;;;;21.95;100.00;99655.43;1792619;80;20159;-80
2021/05/16 05:41:47;;;;;;;;;;;;;;;21.87;100.00;99656.42;1792987;80;20174;-78
2021/05/16 05:44:14;;;;;;;;;;;;;;;21.86;100.00;99650.09;1793109;80;20168;-81
2021/05/16 05:46:41;;;;;;;;;;;;;;;21.92;100.00;99651.84;1793110;80;20175;-80
2021/05/16 05:49:08;;;;;;;;;;;;;;;21.97;100.00;99648.30;1793109;80;20167;-77
2021/05/16 05:51:35;;;;;;;;;;;;;;;22.03;100.00;99649.19;1792966;80;20171;-78
2021/05/16 05:54:01;;;;;;;;;;;;;;;22.14;100.00;99651.82;1793256;80;20143;-78
2021/05/16 05:56:28;;;;;;;;;;;;;;;22.32;100.00;99650.68;1792953;80;20167;-78
2021/05/16 05:58:54;;;;;;;;;;;;;;;22.49;100.00;99646.47;1793411;80;20198;-79
2021/05/16 06:01:20;;;;;;;;;;;;;;;22.63;100.00;99642.76;1793511;80;20179;-78
2021/05/16 06:03:49;;;;;;;;;;;;;;;22.87;100.00;99642.41;1793871;78;20131;-79
2021/05/16 06:06:15;;;;;;;;;;;;;;;23.06;100.00;99651.98;1794158;78;20147;-78
2021/05/16 06:08:42;;;;;;;;;;;;;;;23.18;100.00;99650.97;1794923;78;20148;-79
2021/05/16 06:11:09;;;;;;;;;;;;;;;23.19;100.00;99647.12;1793768;78;20174;-78
2021/05/16 06:13:36;;;;;;;;;;;;;;;23.24;100.00;99645.78;1792198;80;20167;-79
2021/05/16 06:16:02;;;;;;;;;;;;;;;23.34;100.00;99640.88;1792245;80;20234;-77
2021/05/16 06:18:30;;;;;;;;;;;;;;;23.54;100.00;99639.64;1766089;81;20153;-78
2021/05/16 06:20:56;;;;;;;;;;;;;;;23.79;100.00;99640.88;1773286;80;20180;-79
2021/05/16 06:23:32;;;;;;;;;;;;;;;24.17;100.00;99639.70;1773363;81;20199;-79
2021/05/16 06:25:51;;;;;;;;;;;;;;;24.43;100.00;99630.09;1769187;81;20238;-81
2021/05/16 06:28:18;;;;;;;;;;;;;;;24.54;100.00;99634.59;1773601;81;20662;-79
2021/05/16 06:30:45;;;;;;;;;;;;;;;24.75;100.00;99646.48;1773784;81;20160;-81
2021/05/16 06:33:11;;;;;;;;;;;;;;;24.89;100.00;99636.28;1766135;81;20154;-82
2021/05/16 06:35:39;;;;;;;;;;;;;;;25.04;100.00;99635.44;1758562;82;20114;-80
2021/05/16 06:38:06;;;;;;;;;;;;;;;25.25;100.00;99633.00;1758889;82;20133;-82
2021/05/16 06:40:34;;;;;;;;;;;;;;;25.44;98.87;99624.92;1744674;81;20267;-77
2021/05/16 06:43:03;;;;;;;;;;;;;;;25.44;100.00;99622.15;1755649;81;20149;-81
2021/05/16 06:45:30;;;;;;;;;;;;;;;25.42;99.49;99618.84;1743860;82;20506;-76
2021/05/16 06:47:56;;;;;;;;;;;;;;;25.43;100.00;99611.36;1756503;81;20191;-76
2021/05/16 06:50:24;;;;;;;;;;;;;;;25.58;97.64;99608.00;1762622;81;20177;-80
2021/05/16 06:52:53;;;;;;;;;;;;;;;25.66;98.72;99601.08;1754130;81;20201;-84
2021/05/16 06:55:19;;;;;;;;;;;;;;;25.86;98.16;99604.87;1741965;82;20138;-78
2021/05/16 06:57:46;;;;;;;;;;;;;;;26.01;94.05;99592.92;1742488;82;20550;-77
2021/05/16 07:00:17;;;;;;;;;;;;;;;26.19;97.96;99596.98;1691394;82;20205;-79
2021/05/16 07:02:44;;;;;;;;;;;;;;;26.40;93.11;99594.38;1742111;82;20629;-81
2021/05/16 07:05:11;;;;;;;;;;;;;;;26.61;95.53;99594.22;1742245;82;20166;-81
2021/05/16 07:07:41;;;;;;;;;;;;;;;26.95;96.24;99589.27;1740469;82;20170;-78
2021/05/16 07:10:10;;;;;;;;;;;;;;;27.26;83.99;99590.63;1751255;82;20199;-79
2021/05/16 07:12:37;;;;;;;;;;;;;;;27.29;84.24;99593.43;1754923;80;20176;-77
2021/05/16 07:15:05;;;;;;;;;;;;;;;27.30;84.59;99590.08;1762199;81;20216;-77
2021/05/16 07:17:32;;;;;;;;;;;;;;;27.30;85.71;99584.53;1758662;80;20156;-77
2021/05/16 07:19:59;;;;;;;;;;;;;;;27.27;85.21;99583.19;1722420;81;20163;-81
2021/05/16 07:22:25;;;;;;;;;;;;;;;27.19;84.69;99584.59;1781079;80;20155;-79
2021/05/16 07:24:52;;;;;;;;;;;;;;;27.26;88.85;99583.69;1780641;81;20559;-78
2021/05/16 07:27:19;;;;;;;;;;;;;;;27.49;89.34;99581.84;1780312;81;20179;-80
2021/05/16 07:29:46;;;;;;;;;;;;;;;27.74;90.11;99579.31;1780131;80;20171;-78
2021/05/16 07:32:13;;;;;;;;;;;;;;;28.01;90.64;99571.23;1757266;81;20155;-78
2021/05/16 07:34:41;;;;;;;;;;;;;;;28.26;80.96;99580.34;1781359;81;20163;-79
2021/05/16 07:37:08;;;;;;;;;;;;;;;28.30;86.03;99579.98;1780823;81;20175;-78
2021/05/16 07:39:34;;;;;;;;;;;;;;;28.40;86.07;99579.00;1780168;81;20668;-80
2021/05/16 07:42:01;;;;;;;;;;;;;;;28.59;81.96;99579.02;1780755;81;20151;-74
2021/05/16 07:44:28;;;;;;;;;;;;;;;28.77;84.92;99578.19;1780805;81;20167;-74
2021/05/16 07:46:54;;;;;;;;;;;;;;;28.91;83.18;99578.20;1779510;81;20191;-76
2021/05/16 07:49:21;;;;;;;;;;;;;;;29.01;85.58;99574.44;1767452;80;20164;-79
2021/05/16 07:51:48;;;;;;;;;;;;;;;29.13;86.23;99569.78;1773092;81;20191;-77
2021/05/16 07:54:16;;;;;;;;;;;;;;;29.27;82.94;99576.23;1772477;81;20163;-76
2021/05/16 07:56:45;;;;;;;;;;;;;;;29.08;81.55;99583.78;1771445;80;20164;-76
2021/05/16 07:59:12;;;;;;;;;;;;;;;28.74;86.99;99577.97;1772754;81;20128;-77
2021/05/16 08:01:38;;;;;;;;;;;;;;;28.72;90.67;99576.03;1772179;81;20187;-78
2021/05/16 08:04:05;;;;;;;;;;;;;;;28.91;88.19;99569.05;1771745;80;20188;-77
2021/05/16 08:06:32;;;;;;;;;;;;;;;29.05;86.94;99564.91;1771200;80;20156;-75
2021/05/16 08:08:59;;;;;;;;;;;;;;;29.20;86.39;99563.28;1772153;81;20191;-77
2021/05/16 08:11:25;;;;;;;;;;;;;;;29.26;88.12;99564.00;1772465;81;20172;-75
2021/05/16 08:13:54;;;;;;;;;;;;;;;29.32;86.67;99554.41;1772361;81;20176;-76
2021/05/16 08:16:20;;;;;;;;;;;;;;;29.33;85.75;99554.09;1772386;80;20144;-76
2021/05/16 08:18:48;;;;;;;;;;;;;;;29.25;91.15;99552.59;1767239;80;20162;-76
2021/05/16 08:21:15;;;;;;;;;;;;;;;29.23;85.77;99564.61;1828639;78;20204;-76
2021/05/16 08:23:42;;;;;;;;;;;;;;;29.08;86.40;99563.73;1828493;78;20128;-77
2021/05/16 08:26:08;;;;;;;;;;;;;;;28.83;88.03;99554.42;1828527;78;20160;-77
2021/05/16 08:28:35;;;;;;;;;;;;;;;28.58;92.74;99553.75;1828425;78;20465;-75
2021/05/16 08:31:01;;;;;;;;;;;;;;;28.56;91.26;99546.25;1828669;78;20192;-76
2021/05/16 08:33:28;;;;;;;;;;;;;;;28.76;92.30;99543.71;1828659;78;20160;-77
2021/05/16 08:35:54;;;;;;;;;;;;;;;29.07;88.81;99543.97;1828721;78;20173;-75
2021/05/16 08:38:21;;;;;;;;;;;;;;;29.31;87.88;99541.06;1828826;78;20156;-77
2021/05/16 08:40:47;;;;;;;;;;;;;;;29.33;88.41;99533.80;1828750;78;20156;-75
2021/05/16 08:43:14;;;;;;;;;;;;;;;29.39;86.58;99536.72;1828667;78;20533;-76
2021/05/16 08:45:42;;;;;;;;;;;;;;;29.31;88.24;99543.03;1829021;78;20148;-76
2021/05/16 08:48:09;;;;;;;;;;;;;;;29.29;90.28;99541.12;1828849;78;20153;-77
2021/05/16 08:50:37;;;;;;;;;;;;;;;29.28;86.97;99543.63;1828898;78;20156;-76
2021/05/16 08:53:04;;;;;;;;;;;;;;;29.24;87.21;99535.07;1828858;78;20192;-77
2021/05/16 08:55:32;;;;;;;;;;;;;;;29.13;85.39;99532.20;1828658;78;20141;-75
2021/05/16 08:57:58;;;;;;;;;;;;;;;29.11;86.73;99527.48;1828858;78;20477;-77
2021/05/16 09:03:01;;;;;;;;;;;;;;;29.36;87.38;99523.44;1778133;81;20730;-77
2021/05/16 09:05:32;;;;;;;;;;;;;;;29.15;81.59;99515.47;1778234;81;20500;-76
2021/05/16 09:08:00;;;;;;;;;;;;;;;28.80;86.78;99506.37;1715909;82;20496;-75
2021/05/16 09:10:28;;;;;;;;;;;;;;;28.52;85.73;99506.25;1708968;84;20164;-75
2021/05/16 09:13:16;;;;;;;;;;;;;;;28.48;88.39;99506.61;1708964;84;20164;-75
2021/05/16 09:16:00;;;;;;;;;;;;;;;28.45;91.89;99501.07;1709045;84;20180;-76
2021/05/16 09:18:46;;;;;;;;;;;;;;;28.67;92.85;99496.84;1711860;84;20196;-75
2021/05/16 09:21:23;;;;;;;;;;;;;;;28.91;83.09;99497.52;1668888;86;20193;-75
2021/05/16 09:23:49;;;;;;;;;;;;;;;28.83;86.43;99493.22;1696877;85;20179;-76
2021/05/16 09:26:17;;;;;;;;;;;;;;;28.87;85.41;99495.09;1697028;85;20176;-76
2021/05/16 09:28:44;;;;;;;;;;;;;;;29.06;86.51;99495.60;1696978;83;20227;-75
2021/05/16 09:31:10;;;;;;;;;;;;;;;29.18;82.57;99488.15;1696797;85;20182;-77
2021/05/16 09:33:37;;;;;;;;;;;;;;;29.25;83.42;99496.91;1697019;85;20191;-76
2021/05/16 09:36:06;;;;;;;;;;;;;;;29.39;78.74;99485.78;1697000;85;20202;-76
2021/05/16 09:38:33;;;;;;;;;;;;;;;29.36;81.06;99484.45;1697083;85;20219;-75
2021/05/16 09:41:00;;;;;;;;;;;;;;;29.44;83.67;99486.50;1696450;85;20214;-77
2021/05/16 09:43:29;;;;;;;;;;;;;;;29.59;80.52;99484.52;1697270;85;20191;-78
2021/05/16 09:46:02;;;;;;;;;;;;;;;29.66;81.47;99482.98;1628393;88;20168;-75
2021/05/16 09:48:36;;;;;;;;;;;;;;;29.85;80.55;99477.27;1629392;87;20248;-76
2021/05/16 09:51:11;;;;;;;;;;;;;;;30.12;80.39;99472.78;1630462;87;20176;-75
2021/05/16 09:54:05;;;;;;;;;;;;;;;30.36;73.55;99475.27;1630252;88;20319;-74
2021/05/16 09:56:35;;;;;;;;;;;;;;;30.48;78.98;99468.55;1553373;90;20189;-76
2021/05/16 09:59:06;;;;;;;;;;;;;;;30.76;78.34;99453.64;1516015;94;20550;-77
2021/05/16 10:01:34;;;;;;;;;;;;;;;31.04;74.93;99453.71;1498827;96;20226;-75
2021/05/16 10:04:01;;;;;;;;;;;;;;;31.22;73.70;99449.01;1498939;96;20204;-78
2021/05/16 10:06:28;;;;;;;;;;;;;;;31.53;72.89;99442.53;1510961;91;20179;-76
2021/05/16 10:08:56;;;;;;;;;;;;;;;31.71;68.70;99444.78;1596061;90;20241;-75
2021/05/16 10:11:25;;;;;;;;;;;;;;;31.75;67.75;99445.79;1596330;90;20177;-76
2021/05/16 10:14:10;;;;;;;;;;;;;;;31.77;67.79;99443.48;1595987;90;20209;-75
2021/05/16 10:16:43;;;;;;;;;;;;;;;31.70;62.66;99439.55;1597259;86;20165;-77
2021/05/16 10:19:20;;;;;;;;;;;;;;;31.47;67.06;99436.84;1654287;85;20203;-76
2021/05/16 10:22:11;;;;;;;;;;;;;;;31.53;66.73;99434.73;1637432;88;20554;-75
2021/05/16 10:24:38;;;;;;;;;;;;;;;31.63;66.76;99435.02;1637767;88;20215;-76
2021/05/16 10:27:26;;;;;;;;;;;;;;;31.63;66.80;99425.23;1647803;85;20174;-75
2021/05/16 10:30:00;;;;;;;;;;;;;;;31.49;69.82;99427.59;1667876;86;20206;-76
2021/05/16 10:32:38;;;;;;;;;;;;;;;31.49;63.21;99427.59;1667680;85;20160;-75
2021/05/16 10:35:07;;;;;;;;;;;;;;;31.35;69.51;99423.49;1667686;86;20194;-76
2021/05/16 10:37:46;;;;;;;;;;;;;;;31.17;68.14;99417.05;1667648;86;20174;-77
2021/05/16 10:40:23;;;;;;;;;;;;;;;31.24;69.55;99408.20;1667624;86;20203;-77
2021/05/16 10:42:53;;;;;;;;;;;;;;;31.42;68.54;99405.68;1732378;80;20178;-76
2021/05/16 10:45:34;;;;;;;;;;;;;;;31.50;66.94;99409.69;1789550;80;20556;-77
2021/05/16 10:48:12;;;;;;;;;;;;;;;31.46;66.35;99396.07;1773647;81;20164;-76
2021/05/16 10:50:40;;;;;;;;;;;;;;;31.38;64.28;99399.70;1773333;81;20245;-75
2021/05/16 10:53:20;;;;;;;;;;;;;;;31.17;67.87;99407.86;1773602;81;20195;-76
2021/05/16 10:56:10;;;;;;;;;;;;;;;31.10;67.43;99394.94;1773781;81;20168;-75
2021/05/16 10:58:44;;;;;;;;;;;;;;;31.20;63.31;99393.22;1766260;81;20149;-76
2021/05/16 11:01:18;;;;;;;;;;;;;;;31.04;66.17;99388.11;1766441;81;20173;-75
2021/05/16 11:03:48;;;;;;;;;;;;;;;30.91;66.84;99396.56;1766482;81;20507;-77
2021/05/16 11:06:17;;;;;;;;;;;;;;;30.39;66.48;99385.98;1766438;81;20169;-78
2021/05/16 11:08:49;;;;;;;;;;;;;;;29.85;69.09;99379.75;1723540;83;20180;-76
2021/05/16 11:11:42;;;;;;;;;;;;;;;29.67;71.34;99380.73;1723122;83;20160;-76
2021/05/16 11:14:16;;;;;;;;;;;;;;;29.69;73.45;99375.11;1705499;84;20169;-75
2021/05/16 11:16:52;;;;;;;;;;;;;;;29.77;71.72;99376.92;1703631;84;20518;-77
2021/05/16 11:19:24;;;;;;;;;;;;;;;29.84;69.69;99367.55;1671840;85;20518;-77
2021/05/16 11:21:51;;;;;;;;;;;;;;;29.77;68.12;99362.41;1681215;85;20504;-77
2021/05/16 11:24:33;;;;;;;;;;;;;;;29.58;69.16;99363.94;1682698;85;20146;-75
2021/05/16 11:27:00;;;;;;;;;;;;;;;29.46;72.25;99358.09;1627297;88;20241;-76
2021/05/16 11:29:27;;;;;;;;;;;;;;;29.52;72.95;99357.67;1627535;88;20160;-75
2021/05/16 11:32:04;;;;;;;;;;;;;;;29.46;71.99;99355.30;1627349;88;20685;-76
2021/05/16 11:34:31;;;;;;;;;;;;;;;29.44;73.70;99345.05;1627562;88;20172;-76
2021/05/16 11:36:57;;;;;;;;;;;;;;;29.61;76.52;99347.18;1627476;88;20193;-76
2021/05/16 11:39:24;;;;;;;;;;;;;;;29.66;74.19;99347.03;1602453;88;20201;-75
2021/05/16 11:41:50;;;;;;;;;;;;;;;29.43;69.02;99340.06;1627542;88;20197;-76
2021/05/16 11:44:24;;;;;;;;;;;;;;;29.19;71.91;99333.94;1627440;88;20180;-76
2021/05/16 11:46:51;;;;;;;;;;;;;;;29.24;77.55;99329.07;1627359;88;20153;-76
2021/05/16 11:49:26;;;;;;;;;;;;;;;29.42;77.38;99324.48;1623107;88;20200;-75
2021/05/16 11:51:58;;;;;;;;;;;;;;;29.56;75.83;99318.88;1616913;88;20151;-77
2021/05/16 11:54:30;;;;;;;;;;;;;;;29.70;71.39;99328.57;1578263;91;20205;-78
2021/05/16 11:56:57;;;;;;;;;;;;;;;29.74;68.37;99310.08;1578299;91;20170;-78
2021/05/16 11:59:28;;;;;;;;;;;;;;;29.88;69.50;99311.44;1578278;91;20185;-75
2021/05/16 12:01:55;;;;;;;;;;;;;;;30.02;62.92;99308.58;1578444;91;20170;-76
2021/05/16 12:04:21;;;;;;;;;;;;;;;29.92;62.82;99306.86;1578608;91;20181;-76
2021/05/16 12:06:52;;;;;;;;;;;;;;;29.85;65.64;99303.12;1572324;91;20218;-76
2021/05/16 12:09:21;;;;;;;;;;;;;;;30.07;67.25;99295.32;1572083;91;20193;-77
2021/05/16 12:11:51;;;;;;;;;;;;;;;30.47;63.76;99295.39;1571999;91;20205;-77
2021/05/16 12:14:22;;;;;;;;;;;;;;;30.81;65.13;99286.04;1572194;91;20193;-76
2021/05/16 12:16:57;;;;;;;;;;;;;;;31.26;63.14;99282.22;1571748;91;20558;-76
2021/05/16 12:19:25;;;;;;;;;;;;;;;31.63;57.83;99279.36;1584369;90;20206;-76
2021/05/16 12:21:52;;;;;;;;;;;;;;;31.70;57.87;99276.88;1630964;87;20615;-76
2021/05/16 12:24:25;;;;;;;;;;;;;;;31.64;61.93;99271.79;1655540;87;20166;-77
2021/05/16 12:26:52;;;;;;;;;;;;;;;31.57;61.15;99274.52;1655529;87;20474;-76
2021/05/16 12:29:18;;;;;;;;;;;;;;;31.36;56.70;99277.68;1655622;87;20162;-77
2021/05/16 12:31:46;;;;;;;;;;;;;;;30.79;60.89;99271.05;1655551;87;20154;-77
2021/05/16 12:34:14;;;;;;;;;;;;;;;30.36;61.83;99271.70;1655497;87;20142;-77
2021/05/16 12:36:47;;;;;;;;;;;;;;;29.98;65.40;99267.14;1655615;87;20244;-77
2021/05/16 12:39:13;;;;;;;;;;;;;;;29.95;61.67;99263.62;1655634;87;20249;-76
2021/05/16 12:41:40;;;;;;;;;;;;;;;29.98;63.46;99266.59;1655544;87;20185;-77
2021/05/16 12:44:24;;;;;;;;;;;;;;;30.01;62.62;99253.39;1655728;87;20186;-77
2021/05/16 12:46:52;;;;;;;;;;;;;;;30.02;63.63;99255.05;1654394;87;20209;-76
2021/05/16 12:49:22;;;;;;;;;;;;;;;30.14;65.61;99245.25;1655814;86;20158;-77
2021/05/16 12:51:57;;;;;;;;;;;;;;;30.26;65.04;99247.70;1715416;83;20175;-76